Time;durP1;ratioP1;P1;durP2;ratioP2;P2;SDS_P1;SDS_P2;PMS_P1;PMS_P2;Temp;Humidity;BMP_temperature;BMP_pressure;BME280_temperature;BME280_humidity;BME280_pressure;Samples;Min_cycle;Max_cycle;Signal;HPM_P1;HPM_P2
2023/10/29 00:01:04;;;;;;;;;;;10.90;99.90;;;;;;5123041;27;19930;-78
2023/10/29 00:03:36;;;;;;;;;;;10.90;99.90;;;;;;5122586;27;19931;-77
2023/10/29 00:06:02;;;;;;;;;;;10.90;99.90;;;;;;5126172;27;20728;-77
2023/10/29 00:08:28;;;;;;;;;;;10.90;99.90;;;;;;5136235;27;19930;-78
2023/10/29 00:10:53;;;;;;;;;;;11.00;99.90;;;;;;5127225;27;19975;-77
2023/10/29 00:13:19;;;;;;;;;;;11.00;99.90;;;;;;5129687;27;20318;-78
2023/10/29 00:15:45;;;;;;;;;;;11.00;99.90;;;;;;5136751;27;19931;-78
2023/10/29 00:18:13;;;;;;;;;;;11.00;99.90;;;;;;5139119;27;19923;-76
2023/10/29 00:20:39;;;;;;;;;;;11.00;99.90;;;;;;5124809;27;20062;-78
2023/10/29 00:23:05;;;;;;;;;;;11.00;99.90;;;;;;5139560;27;19956;-77
2023/10/29 00:25:31;;;;;;;;;;;11.00;99.90;;;;;;5135708;27;20893;-78
2023/10/29 00:28:03;;;;;;;;;;;11.00;99.90;;;;;;5139327;27;19932;-78
2023/10/29 00:30:29;;;;;;;;;;;11.00;99.90;;;;;;5142387;27;19934;-78
2023/10/29 00:32:55;;;;;;;;;;;11.00;99.90;;;;;;5136329;27;19927;-78
2023/10/29 00:35:21;;;;;;;;;;;11.00;99.90;;;;;;5110263;27;20014;-77
2023/10/29 00:37:47;;;;;;;;;;;11.00;99.90;;;;;;5132752;27;20015;-78
2023/10/29 00:40:14;;;;;;;;;;;11.00;99.90;;;;;;5125011;27;20021;-78
2023/10/29 00:42:40;;;;;;;;;;;11.10;99.90;;;;;;5143475;27;19931;-77
2023/10/29 00:45:06;;;;;;;;;;;11.10;99.90;;;;;;5147939;27;20003;-78
2023/10/29 00:47:32;;;;;;;;;;;11.10;99.90;;;;;;5148076;27;19931;-78
2023/10/29 00:49:58;;;;;;;;;;;11.10;99.90;;;;;;5131020;27;19927;-76
2023/10/29 00:52:24;;;;;;;;;;;11.10;99.90;;;;;;5128031;27;20213;-78
2023/10/29 00:54:49;;;;;;;;;;;11.10;99.90;;;;;;5162566;27;19926;-77
2023/10/29 00:57:15;;;;;;;;;;;11.20;99.90;;;;;;5156849;27;19978;-77
2023/10/29 00:59:41;;;;;;;;;;;11.20;99.90;;;;;;5136464;27;19927;-76
2023/10/29 01:02:07;;;;;;;;;;;11.20;99.90;;;;;;5137730;27;20249;-76
2023/10/29 01:04:34;;;;;;;;;;;11.20;99.90;;;;;;5137054;27;19995;-78
2023/10/29 01:07:06;;;;;;;;;;;11.30;99.90;;;;;;5125116;27;19987;-77
2023/10/29 01:09:32;;;;;;;;;;;11.30;99.90;;;;;;5123829;27;19930;-75
2023/10/29 01:11:58;;;;;;;;;;;11.40;99.90;;;;;;5111150;27;19926;-76
2023/10/29 01:14:24;;;;;;;;;;;11.40;99.90;;;;;;5121092;27;19929;-76
2023/10/29 01:16:50;;;;;;;;;;;11.40;99.90;;;;;;5136903;27;20308;-77
2023/10/29 01:19:15;;;;;;;;;;;11.50;99.90;;;;;;5119122;27;19927;-77
2023/10/29 01:21:41;;;;;;;;;;;11.50;99.90;;;;;;5137715;27;19989;-78
2023/10/29 01:24:07;;;;;;;;;;;11.50;99.90;;;;;;5135307;27;19962;-77
2023/10/29 01:26:32;;;;;;;;;;;11.50;99.90;;;;;;5109303;27;19939;-76
2023/10/29 01:29:04;;;;;;;;;;;11.60;99.90;;;;;;5132376;27;21401;-78
2023/10/29 01:31:30;;;;;;;;;;;11.60;99.90;;;;;;5134495;27;19938;-78
2023/10/29 01:33:56;;;;;;;;;;;11.60;99.90;;;;;;5139062;27;19935;-78
2023/10/29 01:36:21;;;;;;;;;;;11.60;99.90;;;;;;5117689;27;19979;-79
2023/10/29 01:38:47;;;;;;;;;;;11.60;99.90;;;;;;5120197;27;19980;-78
2023/10/29 01:41:17;;;;;;;;;;;11.60;99.90;;;;;;5149895;27;19926;-78
2023/10/29 01:43:43;;;;;;;;;;;11.70;99.90;;;;;;5128612;27;19961;-78
2023/10/29 01:46:09;;;;;;;;;;;11.70;99.90;;;;;;5133095;27;20404;-79
2023/10/29 01:48:35;;;;;;;;;;;11.70;99.90;;;;;;5137027;27;19923;-78
2023/10/29 01:51:03;;;;;;;;;;;11.70;99.90;;;;;;5118152;27;19929;-79
2023/10/29 01:53:29;;;;;;;;;;;11.80;99.90;;;;;;5117530;27;19923;-78
2023/10/29 01:55:55;;;;;;;;;;;11.80;99.90;;;;;;5104544;27;21383;-78
2023/10/29 01:58:21;;;;;;;;;;;11.90;99.90;;;;;;5131261;27;19937;-79
2023/10/29 02:00:50;;;;;;;;;;;11.90;99.90;;;;;;5133098;27;19987;-78
2023/10/29 02:03:16;;;;;;;;;;;12.70;99.90;;;;;;5131085;27;20221;-78
2023/10/29 02:05:42;;;;;;;;;;;12.00;99.90;;;;;;5118263;27;19927;-79
2023/10/29 02:08:08;;;;;;;;;;;12.00;99.90;;;;;;5136495;27;19984;-79
2023/10/29 02:10:34;;;;;;;;;;;12.00;99.90;;;;;;5117706;27;19967;-79
2023/10/29 02:13:00;;;;;;;;;;;12.00;99.90;;;;;;5134601;27;20385;-79
2023/10/29 02:15:26;;;;;;;;;;;12.00;99.90;;;;;;5104644;27;19948;-79
2023/10/29 02:17:51;;;;;;;;;;;12.00;99.90;;;;;;5118718;27;19946;-78
2023/10/29 02:20:17;;;;;;;;;;;12.00;99.90;;;;;;5129849;27;19939;-79
2023/10/29 02:22:43;;;;;;;;;;;12.00;99.90;;;;;;5112769;27;20014;-78
2023/10/29 02:25:09;;;;;;;;;;;12.00;99.90;;;;;;5113710;27;19988;-79
2023/10/29 02:27:34;;;;;;;;;;;12.00;99.90;;;;;;5131463;27;19970;-79
2023/10/29 02:30:00;;;;;;;;;;;12.00;99.90;;;;;;5120544;27;19985;-79
2023/10/29 02:32:27;;;;;;;;;;;12.00;99.90;;;;;;5120578;27;19950;-79
2023/10/29 02:35:00;;;;;;;;;;;12.00;99.90;;;;;;5115442;27;19927;-79
2023/10/29 02:37:25;;;;;;;;;;;12.00;99.90;;;;;;5132651;27;19952;-79
2023/10/29 02:39:52;;;;;;;;;;;12.00;99.90;;;;;;5130736;27;19923;-78
2023/10/29 02:42:26;;;;;;;;;;;12.00;99.90;;;;;;5117289;27;19931;-77
2023/10/29 02:44:54;;;;;;;;;;;12.00;99.90;;;;;;5120363;27;19927;-78
2023/10/29 02:47:20;;;;;;;;;;;12.00;99.90;;;;;;5133464;27;19981;-79
2023/10/29 02:49:45;;;;;;;;;;;12.00;99.90;;;;;;5115926;27;19958;-78
2023/10/29 02:52:14;;;;;;;;;;;12.00;99.90;;;;;;5138207;27;19923;-79
2023/10/29 02:54:40;;;;;;;;;;;12.00;99.90;;;;;;5120045;27;20058;-78
2023/10/29 02:57:10;;;;;;;;;;;12.00;99.90;;;;;;5128771;27;20484;-77
2023/10/29 02:59:36;;;;;;;;;;;12.10;99.90;;;;;;5122685;27;19965;-78
2023/10/29 03:02:01;;;;;;;;;;;12.10;99.90;;;;;;5154332;27;19978;-77
2023/10/29 03:04:37;;;;;;;;;;;12.10;99.90;;;;;;5156512;27;19934;-77
2023/10/29 03:07:03;;;;;;;;;;;11.10;99.90;;;;;;5141037;27;19927;-78
2023/10/29 03:09:29;;;;;;;;;;;12.20;99.90;;;;;;5111566;27;19923;-79
2023/10/29 03:12:05;;;;;;;;;;;12.20;99.90;;;;;;5137388;27;19931;-79
2023/10/29 03:14:51;;;;;;;;;;;12.20;99.90;;;;;;5173183;27;19947;-79
2023/10/29 03:17:16;;;;;;;;;;;12.30;99.90;;;;;;5150721;27;20775;-78
2023/10/29 03:19:51;;;;;;;;;;;12.30;99.90;;;;;;5152144;27;19934;-78
2023/10/29 03:22:29;;;;;;;;;;;12.30;99.90;;;;;;5158819;27;19927;-79
2023/10/29 03:25:05;;;;;;;;;;;12.30;99.90;;;;;;5151574;27;19927;-79
2023/10/29 03:27:39;;;;;;;;;;;12.30;99.90;;;;;;5147603;27;19927;-78
2023/10/29 03:30:24;;;;;;;;;;;12.30;99.90;;;;;;5149219;27;19927;-78
2023/10/29 03:33:01;;;;;;;;;;;12.30;99.90;;;;;;5147385;27;19993;-78
2023/10/29 03:35:28;;;;;;;;;;;12.30;99.90;;;;;;5122704;27;19952;-78
2023/10/29 03:38:00;;;;;;;;;;;12.30;99.90;;;;;;5111164;27;19952;-79
2023/10/29 03:40:29;;;;;;;;;;;12.30;99.90;;;;;;5153087;27;19923;-78
2023/10/29 03:42:56;;;;;;;;;;;12.30;99.90;;;;;;5137945;27;19970;-78
2023/10/29 03:45:22;;;;;;;;;;;12.40;99.90;;;;;;5133642;27;20822;-79
2023/10/29 03:48:07;;;;;;;;;;;12.40;99.90;;;;;;5133991;27;19964;-78
2023/10/29 03:51:06;;;;;;;;;;;12.30;99.90;;;;;;5135980;27;20003;-78
2023/10/29 03:53:31;;;;;;;;;;;12.40;99.90;;;;;;5125201;27;19927;-78
2023/10/29 03:56:06;;;;;;;;;;;12.40;99.90;;;;;;5104290;27;19923;-78
2023/10/29 03:58:45;;;;;;;;;;;12.40;99.90;;;;;;5131066;27;19926;-79
2023/10/29 04:01:28;;;;;;;;;;;12.30;99.90;;;;;;5153323;27;20428;-78
2023/10/29 04:04:15;;;;;;;;;;;12.30;99.90;;;;;;5134526;27;19930;-79
2023/10/29 04:06:55;;;;;;;;;;;12.30;99.90;;;;;;5137344;27;19977;-79
2023/10/29 04:09:29;;;;;;;;;;;12.20;99.90;;;;;;5117025;27;20015;-78
2023/10/29 04:12:07;;;;;;;;;;;12.20;99.90;;;;;;5137123;27;20472;-78
2023/10/29 04:14:55;;;;;;;;;;;12.20;99.90;;;;;;5125915;27;19931;-77
2023/10/29 04:17:31;;;;;;;;;;;12.20;99.90;;;;;;5135592;27;19973;-78
2023/10/29 04:20:08;;;;;;;;;;;12.00;99.90;;;;;;5134206;27;19926;-77
2023/10/29 04:22:51;;;;;;;;;;;12.20;99.90;;;;;;5103440;27;19927;-78
2023/10/29 04:25:38;;;;;;;;;;;12.20;99.90;;;;;;5134527;27;20416;-77
2023/10/29 04:28:29;;;;;;;;;;;12.20;99.90;;;;;;5127099;27;19972;-78
2023/10/29 04:30:57;;;;;;;;;;;11.50;99.90;;;;;;5132157;27;19927;-77
2023/10/29 04:33:39;;;;;;;;;;;12.10;99.90;;;;;;5091797;28;19997;-77
2023/10/29 04:36:06;;;;;;;;;;;12.10;99.90;;;;;;5081209;28;20485;-77
2023/10/29 04:39:00;;;;;;;;;;;12.00;99.90;;;;;;5090336;28;19939;-77
2023/10/29 04:41:46;;;;;;;;;;;12.00;99.90;;;;;;5088695;28;19963;-77
2023/10/29 04:44:17;;;;;;;;;;;11.90;99.90;;;;;;5091711;28;19924;-78
2023/10/29 04:46:52;;;;;;;;;;;11.80;99.90;;;;;;5062966;28;19997;-77
2023/10/29 04:49:30;;;;;;;;;;;11.80;99.90;;;;;;5092367;28;20394;-78
2023/10/29 04:52:15;;;;;;;;;;;11.70;99.90;;;;;;5090419;28;20863;-78
2023/10/29 04:55:01;;;;;;;;;;;11.70;99.90;;;;;;5094499;28;19972;-77
2023/10/29 04:57:35;;;;;;;;;;;11.70;99.90;;;;;;5096289;28;19927;-77
2023/10/29 05:00:09;;;;;;;;;;;11.70;99.90;;;;;;5067611;28;19970;-76
2023/10/29 05:02:58;;;;;;;;;;;11.70;99.90;;;;;;5085404;28;20413;-77
2023/10/29 05:05:25;;;;;;;;;;;11.70;99.90;;;;;;5121322;27;19926;-78
2023/10/29 05:08:01;;;;;;;;;;;11.70;99.90;;;;;;5145053;27;19934;-77
2023/10/29 05:11:09;;;;;;;;;;;11.70;99.90;;;;;;5141564;27;20025;-76
2023/10/29 05:13:59;;;;;;;;;;;11.70;99.90;;;;;;5130801;27;19930;-76
2023/10/29 05:17:01;;;;;;;;;;;11.70;99.90;;;;;;5142383;27;19934;-77
2023/10/29 05:19:29;;;;;;;;;;;11.70;99.90;;;;;;5137357;27;20389;-76
2023/10/29 05:22:53;;;;;;;;;;;11.70;99.90;;;;;;5149209;27;19930;-76
2023/10/29 05:25:26;;;;;;;;;;;11.70;99.90;;;;;;5140948;27;19967;-75
2023/10/29 05:28:30;;;;;;;;;;;11.60;99.90;;;;;;5146872;27;19934;-77
2023/10/29 05:31:30;;;;;;;;;;;11.60;99.90;;;;;;5145497;27;19923;-77
2023/10/29 05:34:14;;;;;;;;;;;11.60;99.90;;;;;;5152041;27;20301;-75
2023/10/29 05:37:24;;;;;;;;;;;11.60;99.90;;;;;;5136857;27;19927;-76
2023/10/29 05:40:16;;;;;;;;;;;11.70;99.90;;;;;;5120602;27;20027;-76
2023/10/29 05:43:06;;;;;;;;;;;10.80;99.90;;;;;;5108390;27;19926;-75
2023/10/29 05:45:51;;;;;;;;;;;11.70;99.90;;;;;;5125059;27;20010;-75
2023/10/29 05:48:57;;;;;;;;;;;11.70;99.90;;;;;;5152528;27;19929;-76
2023/10/29 05:51:25;;;;;;;;;;;11.70;99.90;;;;;;5121377;27;19969;-76
2023/10/29 05:54:09;;;;;;;;;;;11.80;99.90;;;;;;5136704;27;20074;-76
2023/10/29 05:56:59;;;;;;;;;;;11.80;99.90;;;;;;5055977;28;19942;-76
2023/10/29 06:00:19;;;;;;;;;;;11.80;99.90;;;;;;5071819;28;19928;-76
2023/10/29 06:03:09;;;;;;;;;;;11.80;99.90;;;;;;5086506;28;20076;-75
2023/10/29 06:05:41;;;;;;;;;;;11.80;99.90;;;;;;5071105;28;20478;-76
2023/10/29 06:08:44;;;;;;;;;;;11.70;99.90;;;;;;5083553;28;20075;-77
2023/10/29 06:14:48;;;;;;;;;;;11.70;99.90;;;;;;5083336;28;19927;-76
2023/10/29 06:17:51;;;;;;;;;;;11.60;99.90;;;;;;5058611;28;19928;-76
2023/10/29 06:20:36;;;;;;;;;;;11.60;99.90;;;;;;5056865;28;19938;-76
2023/10/29 06:23:13;;;;;;;;;;;11.60;99.90;;;;;;5073752;28;20299;-77
2023/10/29 06:25:55;;;;;;;;;;;11.60;99.90;;;;;;5072248;28;20534;-78
2023/10/29 06:29:09;;;;;;;;;;;;;;;;;;;;;
2023/10/29 06:31:56;;;;;;;;;;;11.50;99.90;;;;;;5085366;28;19927;-77
2023/10/29 06:34:36;;;;;;;;;;;11.50;99.90;;;;;;5076791;28;19936;-77
2023/10/29 06:37:26;;;;;;;;;;;11.50;99.90;;;;;;5076299;28;19923;-79
2023/10/29 06:39:52;;;;;;;;;;;11.40;99.90;;;;;;5093125;27;19929;-81
2023/10/29 06:42:18;;;;;;;;;;;11.40;99.90;;;;;;5141097;27;20093;-75
2023/10/29 06:44:49;;;;;;;;;;;11.40;99.90;;;;;;5154139;27;19931;-76
2023/10/29 06:47:21;;;;;;;;;;;11.40;99.90;;;;;;5134051;27;19970;-77
2023/10/29 06:49:50;;;;;;;;;;;11.50;99.90;;;;;;5130706;27;20645;-78
2023/10/29 06:52:16;;;;;;;;;;;11.50;99.90;;;;;;5116910;27;19931;-76
2023/10/29 06:54:42;;;;;;;;;;;11.50;99.90;;;;;;5129748;27;19937;-76
2023/10/29 06:57:44;;;;;;;;;;;11.50;99.90;;;;;;5135630;27;20019;-76
2023/10/29 07:00:09;;;;;;;;;;;11.50;99.90;;;;;;5131042;27;19934;-76
2023/10/29 07:02:36;;;;;;;;;;;11.50;99.90;;;;;;5116820;27;19931;-76
2023/10/29 07:05:09;;;;;;;;;;;11.50;99.90;;;;;;5115786;27;19975;-76
2023/10/29 07:07:44;;;;;;;;;;;11.60;99.90;;;;;;5119471;27;21522;-76
2023/10/29 07:10:16;;;;;;;;;;;11.60;99.90;;;;;;5135418;27;20018;-77
2023/10/29 07:12:47;;;;;;;;;;;11.60;99.90;;;;;;5126239;27;19930;-76
2023/10/29 07:15:18;;;;;;;;;;;12.10;99.90;;;;;;5113515;27;19926;-76
2023/10/29 07:17:44;;;;;;;;;;;11.60;99.90;;;;;;5105754;27;19930;-77
2023/10/29 07:20:13;;;;;;;;;;;11.70;99.90;;;;;;5131214;27;20009;-77
2023/10/29 07:23:09;;;;;;;;;;;11.70;99.90;;;;;;5132933;27;19968;-75
2023/10/29 07:25:35;;;;;;;;;;;11.80;99.90;;;;;;5122479;27;20025;-78
2023/10/29 07:28:10;;;;;;;;;;;11.80;99.90;;;;;;5148220;27;19931;-77
2023/10/29 07:30:41;;;;;;;;;;;11.80;99.90;;;;;;5132584;27;19927;-77
2023/10/29 07:33:09;;;;;;;;;;;11.80;99.90;;;;;;5119139;27;19976;-77
2023/10/29 07:35:35;;;;;;;;;;;11.70;99.90;;;;;;5129136;27;19986;-77
2023/10/29 07:41:05;;;;;;;;;;;11.70;99.90;;;;;;5152280;27;19918;-76
2023/10/29 07:43:32;;;;;;;;;;;11.60;99.90;;;;;;5137062;27;19927;-76
2023/10/29 07:46:06;;;;;;;;;;;11.60;99.90;;;;;;5135557;27;19927;-77
2023/10/29 07:48:37;;;;;;;;;;;11.60;99.90;;;;;;5120408;27;20388;-77
2023/10/29 07:51:03;;;;;;;;;;;11.60;99.90;;;;;;5121957;27;20057;-77
2023/10/29 07:53:30;;;;;;;;;;;11.60;99.90;;;;;;5129554;27;19961;-77
2023/10/29 07:56:06;;;;;;;;;;;11.60;99.90;;;;;;5135483;27;19930;-77
2023/10/29 07:58:32;;;;;;;;;;;11.60;99.90;;;;;;5131453;27;19934;-75
2023/10/29 08:00:58;;;;;;;;;;;11.60;99.90;;;;;;5137509;27;20425;-76
2023/10/29 08:03:29;;;;;;;;;;;11.60;99.90;;;;;;5104254;27;20130;-77
2023/10/29 08:06:02;;;;;;;;;;;11.60;99.90;;;;;;5135251;27;19927;-77
2023/10/29 08:08:28;;;;;;;;;;;11.60;99.90;;;;;;5117824;27;19950;-77
2023/10/29 08:10:55;;;;;;;;;;;11.60;99.90;;;;;;5133123;27;19927;-77
2023/10/29 08:13:25;;;;;;;;;;;11.60;99.90;;;;;;5120210;27;19926;-77
2023/10/29 08:16:08;;;;;;;;;;;11.60;99.90;;;;;;5152976;27;19934;-76
2023/10/29 08:18:37;;;;;;;;;;;11.60;99.90;;;;;;5126308;27;19927;-76
2023/10/29 08:21:05;;;;;;;;;;;11.60;99.90;;;;;;5133416;27;20014;-77
2023/10/29 08:23:31;;;;;;;;;;;11.60;99.90;;;;;;5114755;27;19931;-77
2023/10/29 08:25:57;;;;;;;;;;;11.60;99.90;;;;;;5122490;27;20407;-76
2023/10/29 08:28:31;;;;;;;;;;;11.60;99.90;;;;;;5134179;27;19939;-77
2023/10/29 08:30:57;;;;;;;;;;;11.60;99.90;;;;;;5133912;27;19979;-76
2023/10/29 08:33:26;;;;;;;;;;;12.80;99.90;;;;;;5134457;27;20321;-77
2023/10/29 08:36:19;;;;;;;;;;;12.20;99.90;;;;;;5104837;27;20547;-78
2023/10/29 08:38:54;;;;;;;;;;;12.30;99.90;;;;;;5134869;27;19950;-76
2023/10/29 08:41:20;;;;;;;;;;;12.50;99.90;;;;;;5115361;27;19984;-78
2023/10/29 08:43:47;;;;;;;;;;;12.50;99.90;;;;;;5118603;27;20017;-79
2023/10/29 08:46:26;;;;;;;;;;;12.50;99.90;;;;;;5139351;27;20302;-77
2023/10/29 08:48:53;;;;;;;;;;;12.40;99.90;;;;;;5102799;27;19971;-77
2023/10/29 08:51:19;;;;;;;;;;;12.30;99.90;;;;;;5105300;27;21201;-78
2023/10/29 08:53:45;;;;;;;;;;;12.20;99.90;;;;;;5118544;27;20361;-77
2023/10/29 08:56:26;;;;;;;;;;;12.10;99.90;;;;;;5150244;27;19991;-78
2023/10/29 08:59:01;;;;;;;;;;;12.10;99.90;;;;;;5137253;27;19927;-77
2023/10/29 09:01:31;;;;;;;;;;;12.00;99.90;;;;;;5145951;27;19973;-76
2023/10/29 09:03:57;;;;;;;;;;;11.90;99.90;;;;;;5155859;27;19967;-78
2023/10/29 09:06:35;;;;;;;;;;;11.90;99.90;;;;;;5138343;27;19930;-77
2023/10/29 09:09:08;;;;;;;;;;;11.90;99.90;;;;;;5122562;27;19923;-76
2023/10/29 09:11:46;;;;;;;;;;;11.90;99.90;;;;;;5136596;27;19933;-77
2023/10/29 09:14:19;;;;;;;;;;;12.00;99.90;;;;;;5116592;27;20428;-77
2023/10/29 09:16:53;;;;;;;;;;;12.10;99.90;;;;;;5121294;27;20043;-77
2023/10/29 09:19:22;;;;;;;;;;;12.20;99.90;;;;;;5153873;27;19927;-78
2023/10/29 09:21:53;;;;;;;;;;;12.40;99.90;;;;;;5136121;27;19931;-77
2023/10/29 09:24:25;;;;;;;;;;;12.40;99.90;;;;;;5153640;27;19931;-77
2023/10/29 09:26:54;;;;;;;;;;;12.40;99.90;;;;;;5138141;27;19933;-78
2023/10/29 09:29:23;;;;;;;;;;;12.30;99.90;;;;;;5144683;27;19933;-77
2023/10/29 09:31:58;;;;;;;;;;;12.30;99.90;;;;;;5127618;27;20009;-77
2023/10/29 09:34:24;;;;;;;;;;;12.30;99.90;;;;;;5135917;27;19927;-76
2023/10/29 09:36:53;;;;;;;;;;;12.20;99.90;;;;;;5155945;27;20024;-77
2023/10/29 09:39:22;;;;;;;;;;;12.20;99.90;;;;;;5122650;27;20005;-78
2023/10/29 09:41:59;;;;;;;;;;;12.20;99.90;;;;;;5154592;27;20448;-77
2023/10/29 09:44:33;;;;;;;;;;;12.20;99.90;;;;;;5148093;27;20446;-77
2023/10/29 09:47:31;;;;;;;;;;;12.40;99.90;;;;;;5138735;27;19923;-77
2023/10/29 09:50:01;;;;;;;;;;;12.60;99.90;;;;;;5126432;27;19923;-77
2023/10/29 09:52:41;;;;;;;;;;;12.80;99.90;;;;;;5134855;27;20310;-76
2023/10/29 09:55:14;;;;;;;;;;;12.80;99.90;;;;;;5135779;27;19934;-77
2023/10/29 09:57:43;;;;;;;;;;;12.90;99.90;;;;;;5137920;27;19938;-77
2023/10/29 10:00:20;;;;;;;;;;;12.90;99.90;;;;;;5103394;27;19923;-77
2023/10/29 10:03:07;;;;;;;;;;;12.90;99.90;;;;;;5139741;27;20746;-77
2023/10/29 10:05:38;;;;;;;;;;;12.90;99.90;;;;;;5136154;27;20441;-77
2023/10/29 10:08:04;;;;;;;;;;;12.80;99.90;;;;;;5135658;27;20370;-76
2023/10/29 10:10:41;;;;;;;;;;;12.80;99.90;;;;;;5096384;27;19934;-77
2023/10/29 10:13:08;;;;;;;;;;;12.90;99.90;;;;;;5118118;27;19927;-77
2023/10/29 10:15:48;;;;;;;;;;;12.90;99.90;;;;;;5126134;27;20003;-78
2023/10/29 10:18:30;;;;;;;;;;;13.20;99.90;;;;;;5125206;27;19927;-78
2023/10/29 10:21:05;;;;;;;;;;;12.30;99.90;;;;;;5154209;27;19934;-77
2023/10/29 10:23:45;;;;;;;;;;;12.10;99.90;;;;;;5107846;27;19927;-77
2023/10/29 10:26:43;;;;;;;;;;;13.30;99.90;;;;;;5085043;28;19931;-78
2023/10/29 10:29:14;;;;;;;;;;;13.30;99.90;;;;;;5077009;28;19969;-77
2023/10/29 10:32:02;;;;;;;;;;;13.30;99.90;;;;;;5100026;28;19928;-78
2023/10/29 10:34:51;;;;;;;;;;;13.20;99.90;;;;;;5077354;28;19928;-77
2023/10/29 10:37:18;;;;;;;;;;;13.20;99.90;;;;;;5060804;28;19929;-77
2023/10/29 10:39:43;;;;;;;;;;;13.10;99.90;;;;;;5044570;28;19928;-78
2023/10/29 10:42:23;;;;;;;;;;;13.10;99.90;;;;;;5077078;28;19928;-77
2023/10/29 10:44:50;;;;;;;;;;;13.00;99.90;;;;;;5045504;28;19928;-78
2023/10/29 10:47:16;;;;;;;;;;;12.90;99.90;;;;;;5061432;28;19928;-77
2023/10/29 10:49:45;;;;;;;;;;;12.90;99.90;;;;;;5053708;28;20014;-77
2023/10/29 10:52:17;;;;;;;;;;;12.80;99.90;;;;;;5029322;28;20340;-78
2023/10/29 10:54:54;;;;;;;;;;;12.80;99.90;;;;;;5084240;28;20034;-78
2023/10/29 10:57:21;;;;;;;;;;;12.60;99.90;;;;;;5099603;28;19924;-77
2023/10/29 10:59:59;;;;;;;;;;;12.70;99.90;;;;;;5108002;28;19949;-78
2023/10/29 11:02:25;;;;;;;;;;;12.70;99.90;;;;;;5078384;28;19974;-78
2023/10/29 11:04:57;;;;;;;;;;;12.90;99.90;;;;;;5118532;27;20456;-78
2023/10/29 11:07:29;;;;;;;;;;;12.90;99.90;;;;;;5135494;27;19926;-77
2023/10/29 11:10:08;;;;;;;;;;;12.90;99.90;;;;;;5121345;27;19927;-78
2023/10/29 11:13:22;;;;;;;;;;;13.00;99.90;;;;;;5156597;27;19927;-78
2023/10/29 11:16:08;;;;;;;;;;;12.90;99.90;;;;;;5147933;27;19927;-77
2023/10/29 11:18:38;;;;;;;;;;;13.00;99.90;;;;;;5142061;27;19972;-78
2023/10/29 11:21:05;;;;;;;;;;;13.00;99.90;;;;;;5108602;27;20027;-78
2023/10/29 11:23:34;;;;;;;;;;;13.00;99.90;;;;;;5146908;27;20012;-77
2023/10/29 11:26:21;;;;;;;;;;;13.10;99.90;;;;;;5141310;27;19930;-77
2023/10/29 11:29:29;;;;;;;;;;;13.00;99.90;;;;;;5157962;27;20049;-77
2023/10/29 11:32:30;;;;;;;;;;;13.00;99.90;;;;;;5156892;27;19926;-77
2023/10/29 11:35:16;;;;;;;;;;;13.10;99.90;;;;;;5131228;27;19926;-78
2023/10/29 11:38:00;;;;;;;;;;;13.20;99.90;;;;;;5108530;27;19944;-77
2023/10/29 11:40:32;;;;;;;;;;;13.50;99.90;;;;;;5159491;27;19927;-75
2023/10/29 11:43:28;;;;;;;;;;;13.60;99.90;;;;;;5147725;27;19934;-77
2023/10/29 11:46:26;;;;;;;;;;;13.90;99.90;;;;;;5156486;27;19966;-77
2023/10/29 11:49:16;;;;;;;;;;;14.10;99.90;;;;;;5158875;27;19937;-77
2023/10/29 11:52:06;;;;;;;;;;;14.40;99.90;;;;;;5141349;27;19927;-77
2023/10/29 11:55:05;;;;;;;;;;;14.60;99.90;;;;;;5130657;27;19980;-77
2023/10/29 11:58:05;;;;;;;;;;;14.70;99.90;;;;;;5046842;28;19924;-76
2023/10/29 12:01:15;;;;;;;;;;;15.20;99.90;;;;;;5057316;28;19973;-77
2023/10/29 12:03:50;;;;;;;;;;;15.50;99.90;;;;;;5055265;28;19931;-77
2023/10/29 12:07:01;;;;;;;;;;;15.10;99.90;;;;;;5058272;28;19929;-77
2023/10/29 12:10:10;;;;;;;;;;;15.80;99.90;;;;;;5064516;28;20560;-79
2023/10/29 12:12:37;;;;;;;;;;;14.70;99.90;;;;;;5045131;28;19970;-77
2023/10/29 12:15:28;;;;;;;;;;;14.40;99.90;;;;;;5063315;28;19952;-76
2023/10/29 12:18:12;;;;;;;;;;;14.30;99.90;;;;;;5046727;28;19928;-76
2023/10/29 12:21:04;;;;;;;;;;;14.10;99.90;;;;;;5109933;27;20000;-78
2023/10/29 12:23:30;;;;;;;;;;;14.10;99.90;;;;;;5135939;27;19930;-77
2023/10/29 12:25:57;;;;;;;;;;;14.10;99.90;;;;;;5121435;27;19930;-77
2023/10/29 12:28:34;;;;;;;;;;;14.10;99.90;;;;;;5152608;27;19926;-76
2023/10/29 12:31:01;;;;;;;;;;;14.10;99.90;;;;;;5135680;27;20010;-76
2023/10/29 12:33:40;;;;;;;;;;;14.10;99.90;;;;;;5153561;27;19926;-75
2023/10/29 12:36:41;;;;;;;;;;;14.30;99.90;;;;;;5081278;28;20403;-76
2023/10/29 12:39:52;;;;;;;;;;;14.50;99.90;;;;;;5080115;28;19932;-77
2023/10/29 12:42:45;;;;;;;;;;;14.50;99.90;;;;;;5039738;28;19957;-74
2023/10/29 12:45:21;;;;;;;;;;;14.40;99.90;;;;;;5025631;28;19925;-76
2023/10/29 12:47:47;;;;;;;;;;;14.30;99.90;;;;;;5039288;28;19929;-76
2023/10/29 12:50:19;;;;;;;;;;;14.60;99.90;;;;;;5008728;28;19929;-75
2023/10/29 12:52:55;;;;;;;;;;;14.80;99.90;;;;;;5040944;28;20454;-78
2023/10/29 12:55:30;;;;;;;;;;;16.20;99.90;;;;;;5042254;28;19929;-76
2023/10/29 12:58:10;;;;;;;;;;;15.70;99.90;;;;;;5008096;28;20031;-77
2023/10/29 13:00:44;;;;;;;;;;;15.40;99.90;;;;;;5028999;28;19933;-73
2023/10/29 13:03:32;;;;;;;;;;;16.30;99.90;;;;;;4996958;28;20526;-75
2023/10/29 13:06:20;;;;;;;;;;;16.70;99.90;;;;;;4983891;28;19932;-74
2023/10/29 13:09:07;;;;;;;;;;;16.90;99.90;;;;;;5037569;28;19964;-74
2023/10/29 13:12:27;;;;;;;;;;;17.20;99.90;;;;;;5041196;28;20065;-74
2023/10/29 13:15:12;;;;;;;;;;;17.20;99.90;;;;;;5059118;28;19935;-75
2023/10/29 13:20:49;;;;;;;;;;;17.60;99.90;;;;;;5087704;28;19932;-77
2023/10/29 13:23:16;;;;;;;;;;;17.60;99.90;;;;;;5064767;28;19928;-80
2023/10/29 13:25:43;;;;;;;;;;;17.60;99.90;;;;;;5075914;28;20268;-78
2023/10/29 13:28:10;;;;;;;;;;;17.60;99.90;;;;;;5059795;28;19928;-79
2023/10/29 13:30:43;;;;;;;;;;;17.70;99.90;;;;;;5073412;28;20013;-77
2023/10/29 13:33:12;;;;;;;;;;;17.70;99.90;;;;;;5073764;28;19932;-77
2023/10/29 13:36:09;;;;;;;;;;;17.70;99.90;;;;;;5120822;27;20328;-76
2023/10/29 13:39:11;;;;;;;;;;;17.70;99.90;;;;;;5126920;27;19934;-78
2023/10/29 13:41:48;;;;;;;;;;;17.70;99.90;;;;;;5118830;27;19926;-76
2023/10/29 13:44:36;;;;;;;;;;;17.60;99.90;;;;;;5150899;27;19927;-76
2023/10/29 13:48:08;;;;;;;;;;;17.70;99.90;;;;;;5148224;27;19925;-76
2023/10/29 13:56:54;;;;;;;;;;;17.40;99.90;;;;;;5149409;27;20443;-74
2023/10/29 13:59:40;;;;;;;;;;;17.10;99.90;;;;;;5119352;27;20310;-74
2023/10/29 14:02:36;;;;;;;;;;;16.80;99.90;;;;;;5147682;27;19965;-74
2023/10/29 14:05:14;;;;;;;;;;;16.50;99.90;;;;;;5146510;27;20198;-75
2023/10/29 14:08:12;;;;;;;;;;;16.10;99.90;;;;;;5150160;27;20003;-74
2023/10/29 14:11:16;;;;;;;;;;;15.80;99.90;;;;;;5131451;27;20471;-74
2023/10/29 14:14:31;;;;;;;;;;;15.60;99.90;;;;;;5135917;27;20026;-75
2023/10/29 14:20:08;;;;;;;;;;;15.20;99.90;;;;;;5126965;27;19934;-76
2023/10/29 14:23:40;;;;;;;;;;;15.10;99.90;;;;;;5138548;27;20143;-75
2023/10/29 14:26:52;;;;;;;;;;;15.00;99.90;;;;;;5107423;27;19931;-75
2023/10/29 14:29:19;;;;;;;;;;;14.80;99.90;;;;;;5137200;27;20444;-76
2023/10/29 14:35:15;;;;;;;;;;;14.60;99.90;;;;;;5138230;27;19927;-74
2023/10/29 14:38:20;;;;;;;;;;;14.50;99.90;;;;;;5144203;27;22047;-76
2023/10/29 14:41:26;;;;;;;;;;;15.20;99.90;;;;;;5162387;27;19927;-77
2023/10/29 14:47:36;;;;;;;;;;;14.00;99.90;;;;;;5125654;27;19931;-75
2023/10/29 14:50:46;;;;;;;;;;;13.80;99.90;;;;;;5087499;28;19928;-76
2023/10/29 14:53:19;;;;;;;;;;;13.70;99.90;;;;;;5055027;28;19986;-75
2023/10/29 14:56:21;;;;;;;;;;;13.60;99.90;;;;;;5052996;28;19924;-75
2023/10/29 15:02:31;;;;;;;;;;;13.40;99.90;;;;;;4982426;28;20017;-75
2023/10/29 15:08:59;;;;;;;;;;;13.30;99.90;;;;;;5090647;28;20476;-74
2023/10/29 15:12:19;;;;;;;;;;;13.20;99.90;;;;;;5095227;28;19926;-75
2023/10/29 15:15:15;;;;;;;;;;;13.20;99.90;;;;;;5073102;28;19943;-75
2023/10/29 15:21:16;;;;;;;;;;;13.00;99.90;;;;;;5098596;28;19971;-74
2023/10/29 15:27:05;;;;;;;;;;;12.90;99.90;;;;;;5088566;27;20465;-75
2023/10/29 15:30:07;;;;;;;;;;;12.90;99.90;;;;;;5067375;28;19965;-74
2023/10/29 15:33:14;;;;;;;;;;;12.90;99.90;;;;;;5082011;28;19931;-75
2023/10/29 15:36:26;;;;;;;;;;;12.80;99.90;;;;;;5090030;28;19936;-75
2023/10/29 15:39:27;;;;;;;;;;;13.70;99.90;;;;;;5092867;28;20396;-76
2023/10/29 15:42:32;;;;;;;;;;;12.70;99.90;;;;;;5092655;28;19918;-73
2023/10/29 15:45:26;;;;;;;;;;;12.70;99.90;;;;;;5090262;28;19978;-74
2023/10/29 15:48:16;;;;;;;;;;;12.70;99.90;;;;;;5088080;28;19928;-76
2023/10/29 15:57:17;;;;;;;;;;;12.60;99.90;;;;;;5089765;28;19923;-75
2023/10/29 16:03:18;;;;;;;;;;;12.50;99.90;;;;;;5099404;27;19934;-74
2023/10/29 16:06:09;;;;;;;;;;;12.50;99.90;;;;;;5075897;27;19963;-74
2023/10/29 16:08:55;;;;;;;;;;;12.50;99.90;;;;;;5112209;27;20084;-74